Time;durP1;ratioP1;P1;durP2;ratioP2;P2;SDS_P1;SDS_P2;PMS_P1;PMS_P2;Temp;Humidity;BMP_temperature;BMP_pressure;BME280_temperature;BME280_humidity;BME280_pressure;Samples;Min_cycle;Max_cycle;Signal;HPM_P1;HPM_P2
2021/06/23 00:01:39;;;;;;;;;;;15.80;74.60;;;;;;4983117;28;96245;-46
2021/06/23 00:04:09;;;;;;;;;;;15.90;74.60;;;;;;5001271;28;97945;-46
2021/06/23 00:06:39;;;;;;;;;;;15.90;74.50;;;;;;5006674;28;95762;-48
2021/06/23 00:09:08;;;;;;;;;;;16.00;75.30;;;;;;5002775;28;96278;-49
2021/06/23 00:11:42;;;;;;;;;;;16.10;76.10;;;;;;5003846;28;95900;-48
2021/06/23 00:14:13;;;;;;;;;;;16.10;76.20;;;;;;4997208;28;96305;-47
2021/06/23 00:16:47;;;;;;;;;;;16.20;75.70;;;;;;4999946;28;95531;-51
2021/06/23 00:19:19;;;;;;;;;;;16.20;75.90;;;;;;5002680;28;96290;-49
2021/06/23 00:21:49;;;;;;;;;;;16.30;76.50;;;;;;5005320;28;96278;-49
2021/06/23 00:24:20;;;;;;;;;;;16.40;76.40;;;;;;4998377;28;97408;-47
2021/06/23 00:26:51;;;;;;;;;;;16.50;76.30;;;;;;5005277;28;95815;-47
2021/06/23 00:29:22;;;;;;;;;;;16.50;76.10;;;;;;5003288;28;95423;-48
2021/06/23 00:31:52;;;;;;;;;;;16.50;75.70;;;;;;5002572;28;95836;-48
2021/06/23 00:34:27;;;;;;;;;;;16.60;75.70;;;;;;5003075;28;96403;-48
2021/06/23 00:36:57;;;;;;;;;;;16.60;75.50;;;;;;5006705;28;95792;-49
2021/06/23 00:39:27;;;;;;;;;;;16.60;74.80;;;;;;5004947;28;95541;-51
2021/06/23 00:41:58;;;;;;;;;;;16.60;74.70;;;;;;5001655;28;95755;-48
2021/06/23 00:44:29;;;;;;;;;;;16.70;74.80;;;;;;4992806;28;95952;-48
2021/06/23 00:47:01;;;;;;;;;;;16.70;74.40;;;;;;4995579;28;99082;-49
2021/06/23 00:49:33;;;;;;;;;;;16.70;74.60;;;;;;5007522;28;95864;-47
2021/06/23 00:52:33;;;;;;;;;;;16.70;74.20;;;;;;4991500;28;95858;-46
2021/06/23 00:55:24;;;;;;;;;;;16.80;74.20;;;;;;5004628;28;95878;-46
2021/06/23 00:57:55;;;;;;;;;;;16.80;74.20;;;;;;5006739;28;95218;-47
2021/06/23 01:00:29;;;;;;;;;;;16.80;73.70;;;;;;4998261;28;96817;-46
2021/06/23 01:03:03;;;;;;;;;;;16.80;74.00;;;;;;5007057;28;95858;-47
2021/06/23 01:05:36;;;;;;;;;;;16.90;73.80;;;;;;5003336;28;95549;-46
2021/06/23 01:08:12;;;;;;;;;;;16.90;73.30;;;;;;5004262;28;95971;-46
2021/06/23 01:10:45;;;;;;;;;;;16.90;73.60;;;;;;4995726;28;96425;-47
2021/06/23 01:13:38;;;;;;;;;;;16.90;73.60;;;;;;4988373;28;98387;-46
2021/06/23 01:16:12;;;;;;;;;;;16.90;73.10;;;;;;4995868;28;97536;-47
2021/06/23 01:18:45;;;;;;;;;;;16.90;73.30;;;;;;5004994;28;95508;-47
2021/06/23 01:21:15;;;;;;;;;;;17.00;73.20;;;;;;4985481;28;96435;-47
2021/06/23 01:23:45;;;;;;;;;;;17.00;72.70;;;;;;5000037;28;96997;-47
2021/06/23 01:26:16;;;;;;;;;;;17.00;72.80;;;;;;4987080;28;95487;-48
2021/06/23 01:28:47;;;;;;;;;;;17.00;72.90;;;;;;5003349;28;96023;-48
2021/06/23 01:31:21;;;;;;;;;;;17.00;72.70;;;;;;4999463;28;96093;-50
2021/06/23 01:33:53;;;;;;;;;;;17.00;72.40;;;;;;5003689;28;97835;-50
2021/06/23 01:36:23;;;;;;;;;;;16.90;72.40;;;;;;5003794;28;98093;-48
2021/06/23 01:38:54;;;;;;;;;;;17.00;72.40;;;;;;5007659;28;95797;-48
2021/06/23 01:41:25;;;;;;;;;;;17.10;72.20;;;;;;5006699;28;95699;-47
2021/06/23 01:43:56;;;;;;;;;;;17.20;71.80;;;;;;4994443;28;98013;-49
2021/06/23 01:46:27;;;;;;;;;;;17.20;71.70;;;;;;4997645;28;97920;-48
2021/06/23 01:48:58;;;;;;;;;;;17.30;71.50;;;;;;5005117;28;97480;-47
2021/06/23 01:51:29;;;;;;;;;;;17.40;71.30;;;;;;4998997;28;95465;-46
2021/06/23 01:53:58;;;;;;;;;;;17.50;71.30;;;;;;4999091;28;96587;-47
2021/06/23 01:56:29;;;;;;;;;;;17.50;71.10;;;;;;5006907;28;96002;-47
2021/06/23 01:59:00;;;;;;;;;;;17.60;70.90;;;;;;5016352;27;96049;-48
2021/06/23 02:01:50;;;;;;;;;;;17.60;70.90;;;;;;5003997;28;95766;-46
2021/06/23 02:04:37;;;;;;;;;;;17.60;70.90;;;;;;5004756;28;99002;-44
2021/06/23 02:07:19;;;;;;;;;;;17.70;70.80;;;;;;5007611;28;96002;-45
2021/06/23 02:10:00;;;;;;;;;;;17.80;70.70;;;;;;5001347;28;95963;-45
2021/06/23 02:13:02;;;;;;;;;;;17.80;70.70;;;;;;5007078;28;95861;-56
2021/06/23 02:15:35;;;;;;;;;;;17.90;70.90;;;;;;5005176;28;95930;-54
2021/06/23 02:18:15;;;;;;;;;;;17.90;70.80;;;;;;5014688;28;95868;-47
2021/06/23 02:21:05;;;;;;;;;;;18.00;71.00;;;;;;4984108;28;95997;-56
2021/06/23 02:23:42;;;;;;;;;;;18.10;70.90;;;;;;4986169;28;98292;-52
2021/06/23 02:26:15;;;;;;;;;;;18.10;70.80;;;;;;5006150;28;97833;-53
2021/06/23 02:28:47;;;;;;;;;;;18.10;70.60;;;;;;4987247;28;96330;-55
2021/06/23 02:31:19;;;;;;;;;;;18.20;70.50;;;;;;4996534;28;95319;-55
2021/06/23 02:33:55;;;;;;;;;;;18.20;70.30;;;;;;5004967;28;95905;-56
2021/06/23 02:36:35;;;;;;;;;;;18.20;70.20;;;;;;5003468;28;96576;-56
2021/06/23 02:39:07;;;;;;;;;;;18.20;70.20;;;;;;5002927;28;96190;-46
2021/06/23 02:41:38;;;;;;;;;;;18.20;70.20;;;;;;5005391;28;96059;-57
2021/06/23 02:44:08;;;;;;;;;;;18.20;70.20;;;;;;5005038;28;97736;-55
2021/06/23 02:46:39;;;;;;;;;;;18.20;70.20;;;;;;4997926;28;98684;-57
2021/06/23 02:49:26;;;;;;;;;;;18.20;70.20;;;;;;4997978;28;96257;-55
2021/06/23 02:51:58;;;;;;;;;;;18.30;70.90;;;;;;5004680;28;95889;-56
2021/06/23 02:54:27;;;;;;;;;;;18.30;70.30;;;;;;5008034;28;95274;-55
2021/06/23 02:57:23;;;;;;;;;;;18.30;70.30;;;;;;5002205;28;96108;-57
2021/06/23 02:59:54;;;;;;;;;;;18.30;70.30;;;;;;5005337;28;96059;-55
2021/06/23 03:02:24;;;;;;;;;;;18.20;70.50;;;;;;4999795;28;95761;-56
2021/06/23 03:04:55;;;;;;;;;;;18.20;70.30;;;;;;5011334;28;95854;-55
2021/06/23 03:07:26;;;;;;;;;;;18.20;70.20;;;;;;5004819;28;96327;-46
2021/06/23 03:10:07;;;;;;;;;;;18.20;70.30;;;;;;5005551;28;96123;-45
2021/06/23 03:12:56;;;;;;;;;;;18.20;70.40;;;;;;5003729;28;95906;-46
2021/06/23 03:15:57;;;;;;;;;;;18.30;70.40;;;;;;4988750;28;95752;-57
2021/06/23 03:18:36;;;;;;;;;;;18.30;70.50;;;;;;5006095;28;98336;-54
2021/06/23 03:21:08;;;;;;;;;;;18.30;70.30;;;;;;4986790;28;96100;-47
2021/06/23 03:23:46;;;;;;;;;;;18.30;70.20;;;;;;5009093;28;95823;-53
2021/06/23 03:26:21;;;;;;;;;;;18.30;70.20;;;;;;5005276;28;95176;-56
2021/06/23 03:28:55;;;;;;;;;;;18.40;70.10;;;;;;5007402;28;95969;-49
2021/06/23 03:31:27;;;;;;;;;;;18.50;70.00;;;;;;4998116;28;95888;-56
2021/06/23 03:33:59;;;;;;;;;;;18.50;69.90;;;;;;5007361;28;95862;-55
2021/06/23 03:36:38;;;;;;;;;;;18.50;69.90;;;;;;5004823;28;103487;-58
2021/06/23 03:39:09;;;;;;;;;;;18.50;69.90;;;;;;5007108;28;95875;-58
2021/06/23 03:41:50;;;;;;;;;;;18.50;69.80;;;;;;5002094;28;95837;-56
2021/06/23 03:44:20;;;;;;;;;;;18.60;69.90;;;;;;4980358;28;96274;-57
2021/06/23 03:46:55;;;;;;;;;;;18.60;69.80;;;;;;4994581;28;96191;-56
2021/06/23 03:49:25;;;;;;;;;;;18.60;69.80;;;;;;5002915;28;98399;-56
2021/06/23 03:52:00;;;;;;;;;;;18.60;69.80;;;;;;5007105;28;97440;-55
2021/06/23 03:54:30;;;;;;;;;;;18.60;69.70;;;;;;5007802;28;95912;-54
2021/06/23 03:57:03;;;;;;;;;;;18.70;69.60;;;;;;5005294;28;96388;-54
2021/06/23 03:59:38;;;;;;;;;;;18.70;69.90;;;;;;5004969;28;103956;-56
2021/06/23 04:02:08;;;;;;;;;;;18.70;69.90;;;;;;4993088;28;95887;-55
2021/06/23 04:04:38;;;;;;;;;;;18.70;70.10;;;;;;5002856;28;96134;-56
2021/06/23 04:07:10;;;;;;;;;;;18.80;69.30;;;;;;5006754;28;95806;-55
2021/06/23 04:09:40;;;;;;;;;;;18.80;69.20;;;;;;5003666;28;95964;-56
2021/06/23 04:12:18;;;;;;;;;;;18.90;69.30;;;;;;5004778;28;95692;-54
2021/06/23 04:14:51;;;;;;;;;;;18.90;69.20;;;;;;5004399;28;95301;-54
2021/06/23 04:17:23;;;;;;;;;;;18.90;69.20;;;;;;4990128;28;100846;-55
2021/06/23 04:19:53;;;;;;;;;;;18.90;69.10;;;;;;4999769;28;98452;-56
2021/06/23 04:22:46;;;;;;;;;;;18.90;69.10;;;;;;5004645;28;95644;-57
2021/06/23 04:25:17;;;;;;;;;;;18.80;68.70;;;;;;5002825;28;96107;-57
2021/06/23 04:27:48;;;;;;;;;;;18.70;68.90;;;;;;5004632;28;95816;-57
2021/06/23 04:30:20;;;;;;;;;;;18.70;69.10;;;;;;4997374;28;98408;-57
2021/06/23 04:32:52;;;;;;;;;;;18.70;69.10;;;;;;5001434;28;97542;-57
2021/06/23 04:35:33;;;;;;;;;;;18.60;69.20;;;;;;5000501;28;96786;-48
2021/06/23 04:38:03;;;;;;;;;;;18.60;69.20;;;;;;5004650;28;95749;-53
2021/06/23 04:40:36;;;;;;;;;;;18.60;69.30;;;;;;5001332;28;95870;-53
2021/06/23 04:43:05;;;;;;;;;;;18.60;69.30;;;;;;5005604;28;96414;-55
2021/06/23 04:45:36;;;;;;;;;;;18.60;69.40;;;;;;4985374;28;96058;-54
2021/06/23 04:48:09;;;;;;;;;;;18.50;69.40;;;;;;5005561;28;95679;-50
2021/06/23 04:50:41;;;;;;;;;;;18.50;69.60;;;;;;5000896;28;97712;-58
2021/06/23 04:53:19;;;;;;;;;;;18.50;69.80;;;;;;5000914;28;96352;-57
2021/06/23 04:55:48;;;;;;;;;;;18.50;69.80;;;;;;4999303;28;95445;-47
2021/06/23 04:58:23;;;;;;;;;;;18.40;69.80;;;;;;4984270;28;95729;-53
2021/06/23 05:01:13;;;;;;;;;;;18.50;70.10;;;;;;5002754;28;95866;-54
2021/06/23 05:03:47;;;;;;;;;;;18.50;70.10;;;;;;5006097;28;96242;-55
2021/06/23 05:06:17;;;;;;;;;;;18.50;70.10;;;;;;5003669;28;96109;-55
2021/06/23 05:08:52;;;;;;;;;;;18.50;70.30;;;;;;5001704;28;97623;-55
2021/06/23 05:11:22;;;;;;;;;;;18.60;70.10;;;;;;5000163;28;95816;-56
2021/06/23 05:13:56;;;;;;;;;;;18.60;70.00;;;;;;5005323;28;95866;-55
2021/06/23 05:16:27;;;;;;;;;;;18.60;70.10;;;;;;4993852;28;95690;-50
2021/06/23 05:18:58;;;;;;;;;;;18.60;70.20;;;;;;5006517;28;95597;-45
2021/06/23 05:21:27;;;;;;;;;;;18.60;70.20;;;;;;5005008;28;95839;-56
2021/06/23 05:24:01;;;;;;;;;;;18.60;70.10;;;;;;5003044;28;95949;-56
2021/06/23 05:26:34;;;;;;;;;;;18.60;70.20;;;;;;5006219;28;96367;-55
2021/06/23 05:29:05;;;;;;;;;;;18.60;70.20;;;;;;5005743;28;95951;-58
2021/06/23 05:31:36;;;;;;;;;;;18.60;70.00;;;;;;4996347;28;96325;-50
2021/06/23 05:34:07;;;;;;;;;;;18.70;70.10;;;;;;5007044;28;95835;-46
2021/06/23 05:36:38;;;;;;;;;;;18.60;70.00;;;;;;5002292;28;96779;-54
2021/06/23 05:39:09;;;;;;;;;;;18.60;70.30;;;;;;5006433;28;95690;-47
2021/06/23 05:41:40;;;;;;;;;;;18.60;70.40;;;;;;5006726;28;95830;-56
2021/06/23 05:44:09;;;;;;;;;;;18.70;70.20;;;;;;4998441;28;95775;-56
2021/06/23 05:46:40;;;;;;;;;;;18.60;70.20;;;;;;4994808;28;95752;-56
2021/06/23 05:49:11;;;;;;;;;;;18.60;70.30;;;;;;5008316;28;95691;-57
2021/06/23 05:51:41;;;;;;;;;;;18.60;70.30;;;;;;5006121;28;102305;-59
2021/06/23 05:54:11;;;;;;;;;;;18.60;70.40;;;;;;5006765;28;95634;-58
2021/06/23 05:56:40;;;;;;;;;;;18.60;70.40;;;;;;5010347;28;95773;-55
2021/06/23 05:59:11;;;;;;;;;;;18.60;70.10;;;;;;5007906;28;95876;-57
2021/06/23 06:01:41;;;;;;;;;;;18.50;70.10;;;;;;5001399;28;96509;-55
2021/06/23 06:04:11;;;;;;;;;;;18.50;70.60;;;;;;5007880;28;95197;-48
2021/06/23 06:06:41;;;;;;;;;;;18.50;70.50;;;;;;5009694;28;95812;-49
2021/06/23 06:09:12;;;;;;;;;;;18.50;70.30;;;;;;5006439;28;95581;-46
2021/06/23 06:11:42;;;;;;;;;;;18.60;70.60;;;;;;5003376;28;95915;-58
2021/06/23 06:14:12;;;;;;;;;;;18.60;70.50;;;;;;5005222;28;95629;-48
2021/06/23 06:16:43;;;;;;;;;;;18.60;70.50;;;;;;5002273;28;95748;-48
2021/06/23 06:19:14;;;;;;;;;;;18.60;70.40;;;;;;5002855;28;96700;-55
2021/06/23 06:21:43;;;;;;;;;;;18.60;70.30;;;;;;5004640;28;95910;-47
2021/06/23 06:24:13;;;;;;;;;;;18.60;70.20;;;;;;5003778;28;96541;-56
2021/06/23 06:26:45;;;;;;;;;;;18.60;70.20;;;;;;5008390;28;96180;-55
2021/06/23 06:29:15;;;;;;;;;;;18.60;70.30;;;;;;5005709;28;95392;-57
2021/06/23 06:31:46;;;;;;;;;;;18.50;70.30;;;;;;5000872;28;95904;-55
2021/06/23 06:34:17;;;;;;;;;;;18.50;70.20;;;;;;5002238;28;95817;-47
2021/06/23 06:36:47;;;;;;;;;;;18.50;70.30;;;;;;5005954;28;95979;-46
2021/06/23 06:39:18;;;;;;;;;;;18.60;70.40;;;;;;5003727;28;96782;-46
2021/06/23 06:41:48;;;;;;;;;;;18.60;70.70;;;;;;5005436;28;96620;-48
2021/06/23 06:44:18;;;;;;;;;;;18.60;70.60;;;;;;4993072;28;95954;-59
2021/06/23 06:46:49;;;;;;;;;;;18.60;70.60;;;;;;4997670;28;98094;-47
2021/06/23 06:49:20;;;;;;;;;;;18.60;70.50;;;;;;4985545;28;96362;-49
2021/06/23 06:51:51;;;;;;;;;;;18.70;70.90;;;;;;5002568;28;96747;-56
2021/06/23 06:54:20;;;;;;;;;;;18.70;70.90;;;;;;5000365;28;96354;-59
2021/06/23 06:56:50;;;;;;;;;;;18.70;70.80;;;;;;5006362;28;95778;-59
2021/06/23 06:59:19;;;;;;;;;;;18.70;70.80;;;;;;5003780;28;95750;-61
2021/06/23 07:01:49;;;;;;;;;;;18.60;70.70;;;;;;5001300;28;96776;-60
2021/06/23 07:04:18;;;;;;;;;;;18.70;70.60;;;;;;5006567;28;96154;-48
2021/06/23 07:06:48;;;;;;;;;;;18.60;70.50;;;;;;5006305;28;95776;-48
2021/06/23 07:09:19;;;;;;;;;;;18.60;70.60;;;;;;5004573;28;95997;-58
2021/06/23 07:11:50;;;;;;;;;;;18.60;70.60;;;;;;5001784;28;95949;-57
2021/06/23 07:14:21;;;;;;;;;;;18.60;70.50;;;;;;5004773;28;95864;-46
2021/06/23 07:16:52;;;;;;;;;;;18.60;70.50;;;;;;4999510;28;97645;-58
2021/06/23 07:19:22;;;;;;;;;;;18.50;70.40;;;;;;5001679;28;95757;-47
2021/06/23 07:21:52;;;;;;;;;;;18.50;70.50;;;;;;5003015;28;96446;-47
2021/06/23 07:24:21;;;;;;;;;;;18.40;71.00;;;;;;5001290;28;96012;-58
2021/06/23 07:26:57;;;;;;;;;;;18.30;71.60;;;;;;5001658;28;96041;-60
2021/06/23 07:29:28;;;;;;;;;;;18.30;71.40;;;;;;5005892;28;95834;-59
2021/06/23 07:32:05;;;;;;;;;;;18.30;71.20;;;;;;5001781;28;104195;-45
2021/06/23 07:37:17;;;;;;;;;;;18.30;71.20;;;;;;5001324;28;95369;-57
2021/06/23 07:39:48;;;;;;;;;;;18.20;71.00;;;;;;5007598;28;95889;-46
2021/06/23 07:42:21;;;;;;;;;;;18.20;70.90;;;;;;5000965;28;97427;-58
2021/06/23 07:44:59;;;;;;;;;;;18.20;70.90;;;;;;4995575;28;95374;-60
2021/06/23 07:47:38;;;;;;;;;;;18.20;71.00;;;;;;5011594;27;96319;-50
2021/06/23 07:50:14;;;;;;;;;;;18.20;71.60;;;;;;5007490;28;96256;-58
2021/06/23 07:53:04;;;;;;;;;;;18.10;72.00;;;;;;4999542;28;95809;-51
2021/06/23 08:01:35;;;;;;;;;;;17.90;72.30;;;;;;5000834;28;95930;-49
2021/06/23 08:09:33;;;;;;;;;;;17.80;72.60;;;;;;5006461;28;95610;-47
2021/06/23 08:12:17;;;;;;;;;;;17.80;72.80;;;;;;5003166;28;95636;-56
2021/06/23 08:14:50;;;;;;;;;;;17.80;73.00;;;;;;5004683;28;95969;-58
2021/06/23 08:17:21;;;;;;;;;;;17.70;72.90;;;;;;4999502;28;104584;-49
2021/06/23 08:19:51;;;;;;;;;;;17.70;72.70;;;;;;5000648;28;95805;-58
2021/06/23 08:22:21;;;;;;;;;;;17.80;72.60;;;;;;5005639;28;95750;-58
2021/06/23 08:24:52;;;;;;;;;;;17.80;72.40;;;;;;5005888;28;96541;-56
2021/06/23 08:27:23;;;;;;;;;;;17.80;72.60;;;;;;5006126;28;97497;-58
2021/06/23 08:29:54;;;;;;;;;;;17.80;72.60;;;;;;5001813;28;95746;-59
2021/06/23 08:32:24;;;;;;;;;;;17.80;73.20;;;;;;4999651;28;95715;-48
2021/06/23 08:34:56;;;;;;;;;;;17.80;72.70;;;;;;5002820;28;96311;-48
2021/06/23 08:37:26;;;;;;;;;;;17.80;72.90;;;;;;5005030;28;95706;-58
2021/06/23 08:39:57;;;;;;;;;;;17.80;73.10;;;;;;5005031;28;95844;-49
2021/06/23 08:42:27;;;;;;;;;;;17.70;73.20;;;;;;5003860;28;95916;-58
2021/06/23 08:44:57;;;;;;;;;;;17.70;73.40;;;;;;4990257;28;95949;-57
2021/06/23 08:47:30;;;;;;;;;;;17.70;73.50;;;;;;4995601;28;95968;-58
2021/06/23 08:50:05;;;;;;;;;;;17.70;73.30;;;;;;4999894;28;96313;-58
2021/06/23 08:52:35;;;;;;;;;;;17.70;73.20;;;;;;5004553;28;95714;-57
2021/06/23 08:55:05;;;;;;;;;;;17.70;73.10;;;;;;5001192;28;98183;-48
2021/06/23 08:57:34;;;;;;;;;;;17.70;73.00;;;;;;4985804;28;96327;-62
2021/06/23 09:00:06;;;;;;;;;;;17.70;73.00;;;;;;4996805;28;95980;-58
2021/06/23 09:02:37;;;;;;;;;;;17.70;73.00;;;;;;5004901;28;96462;-58
2021/06/23 09:05:11;;;;;;;;;;;17.70;72.90;;;;;;5000875;28;95790;-58
2021/06/23 09:07:49;;;;;;;;;;;17.70;73.00;;;;;;5002542;28;97198;-59
2021/06/23 09:10:21;;;;;;;;;;;17.70;73.10;;;;;;5001676;28;95856;-58
2021/06/23 09:13:00;;;;;;;;;;;17.70;73.20;;;;;;5002293;28;96006;-54
2021/06/23 09:15:44;;;;;;;;;;;17.70;73.30;;;;;;4995260;28;96723;-57
2021/06/23 09:18:15;;;;;;;;;;;17.60;73.20;;;;;;5004699;28;95731;-57
2021/06/23 09:20:47;;;;;;;;;;;17.60;73.30;;;;;;5000285;28;100787;-58
2021/06/23 09:23:37;;;;;;;;;;;17.60;73.20;;;;;;5002417;28;96377;-58
2021/06/23 09:26:30;;;;;;;;;;;17.60;73.30;;;;;;5002333;28;95759;-57
2021/06/23 09:29:09;;;;;;;;;;;17.50;73.30;;;;;;5007980;28;95756;-48
2021/06/23 09:32:03;;;;;;;;;;;17.30;73.90;;;;;;4998500;28;98037;-48
2021/06/23 09:34:36;;;;;;;;;;;17.30;74.10;;;;;;5005745;28;95201;-58
2021/06/23 09:37:25;;;;;;;;;;;17.20;74.40;;;;;;5002035;28;95986;-57
2021/06/23 09:40:30;;;;;;;;;;;17.20;74.80;;;;;;5005139;28;95935;-57
2021/06/23 09:43:02;;;;;;;;;;;17.10;75.10;;;;;;4969536;28;96339;-57
2021/06/23 09:45:32;;;;;;;;;;;17.00;75.30;;;;;;4990562;28;96219;-60
2021/06/23 09:48:04;;;;;;;;;;;16.90;75.40;;;;;;5004739;28;96459;-49
2021/06/23 09:50:36;;;;;;;;;;;16.90;75.50;;;;;;5004801;28;97253;-57
2021/06/23 09:53:13;;;;;;;;;;;16.80;75.60;;;;;;5002807;28;95977;-58
2021/06/23 09:55:48;;;;;;;;;;;16.90;75.60;;;;;;5005156;28;95319;-58
2021/06/23 09:58:25;;;;;;;;;;;16.80;75.70;;;;;;5002946;28;95784;-56
2021/06/23 10:00:59;;;;;;;;;;;16.80;75.70;;;;;;5000432;28;97660;-56
2021/06/23 10:03:33;;;;;;;;;;;16.70;75.70;;;;;;5003518;28;96327;-55
2021/06/23 10:06:23;;;;;;;;;;;16.80;75.80;;;;;;5005002;28;95678;-57
2021/06/23 10:09:11;;;;;;;;;;;16.70;75.70;;;;;;5005820;28;98619;-57
2021/06/23 10:11:42;;;;;;;;;;;16.70;75.80;;;;;;5006467;28;96484;-57
2021/06/23 10:14:13;;;;;;;;;;;16.70;75.70;;;;;;5009587;28;95906;-57
2021/06/23 10:16:44;;;;;;;;;;;16.60;75.70;;;;;;5007632;28;96439;-54
2021/06/23 10:19:16;;;;;;;;;;;16.70;75.70;;;;;;5008475;28;95933;-58
2021/06/23 10:21:46;;;;;;;;;;;16.60;75.60;;;;;;5010221;28;95846;-56
2021/06/23 10:24:18;;;;;;;;;;;16.60;75.70;;;;;;5007504;28;95768;-47
2021/06/23 10:26:51;;;;;;;;;;;16.60;75.70;;;;;;5008334;28;95921;-48
2021/06/23 10:29:22;;;;;;;;;;;16.60;75.60;;;;;;5004412;28;96442;-47
2021/06/23 10:31:54;;;;;;;;;;;16.60;75.80;;;;;;5007908;28;96061;-56
2021/06/23 10:34:26;;;;;;;;;;;16.50;75.60;;;;;;5007236;28;95788;-57
2021/06/23 10:36:57;;;;;;;;;;;16.50;75.60;;;;;;5005301;28;96166;-56
2021/06/23 10:39:35;;;;;;;;;;;16.50;75.70;;;;;;5005924;28;96228;-57
2021/06/23 10:42:06;;;;;;;;;;;16.50;75.60;;;;;;5005696;28;95928;-57
2021/06/23 10:44:42;;;;;;;;;;;16.50;75.60;;;;;;4995151;28;96061;-58
2021/06/23 10:47:42;;;;;;;;;;;16.50;75.80;;;;;;5003075;28;96756;-55
2021/06/23 10:50:18;;;;;;;;;;;16.50;75.80;;;;;;5003619;28;96189;-57
2021/06/23 10:52:49;;;;;;;;;;;16.40;75.90;;;;;;5008581;28;95511;-58
2021/06/23 10:55:22;;;;;;;;;;;16.40;75.90;;;;;;5006318;28;95337;-53
2021/06/23 10:57:53;;;;;;;;;;;16.40;75.90;;;;;;5009946;28;95539;-59
2021/06/23 11:00:27;;;;;;;;;;;16.40;75.90;;;;;;4998704;28;96193;-57
2021/06/23 11:03:05;;;;;;;;;;;16.40;76.00;;;;;;5007310;28;95669;-58
2021/06/23 11:05:36;;;;;;;;;;;16.30;76.00;;;;;;5005761;28;95993;-57
2021/06/23 11:08:29;;;;;;;;;;;16.30;76.20;;;;;;5008571;28;95866;-57
2021/06/23 11:11:00;;;;;;;;;;;16.30;76.20;;;;;;5004400;28;97113;-56
2021/06/23 11:13:32;;;;;;;;;;;16.30;76.10;;;;;;5007856;28;95785;-56
2021/06/23 11:16:05;;;;;;;;;;;16.30;76.20;;;;;;5000920;28;95891;-57
2021/06/23 11:18:38;;;;;;;;;;;16.30;76.20;;;;;;5008593;28;96119;-57
2021/06/23 11:21:15;;;;;;;;;;;16.20;76.10;;;;;;5006146;28;95940;-48
2021/06/23 11:23:50;;;;;;;;;;;16.30;76.20;;;;;;5008865;28;95959;-48
2021/06/23 11:26:21;;;;;;;;;;;16.20;76.20;;;;;;5004981;28;96084;-57
2021/06/23 11:28:55;;;;;;;;;;;16.20;76.20;;;;;;5007490;28;95932;-57
2021/06/23 11:31:49;;;;;;;;;;;16.20;76.30;;;;;;4999794;28;96378;-48
2021/06/23 11:34:40;;;;;;;;;;;16.20;76.20;;;;;;5008950;28;95867;-57
2021/06/23 11:37:11;;;;;;;;;;;16.20;76.30;;;;;;5006063;28;95800;-57
2021/06/23 11:39:43;;;;;;;;;;;16.10;76.20;;;;;;5008387;28;95767;-56
2021/06/23 11:42:13;;;;;;;;;;;16.10;76.20;;;;;;5004084;28;96211;-55
2021/06/23 11:44:43;;;;;;;;;;;16.10;76.30;;;;;;4995202;28;96864;-57
2021/06/23 11:47:15;;;;;;;;;;;16.10;76.30;;;;;;4998530;28;95968;-57
2021/06/23 11:49:47;;;;;;;;;;;16.10;76.30;;;;;;5007039;28;95728;-54
2021/06/23 11:52:19;;;;;;;;;;;16.10;76.30;;;;;;5006322;28;95884;-58
2021/06/23 11:54:49;;;;;;;;;;;16.00;76.40;;;;;;4989104;28;95894;-55
2021/06/23 11:57:19;;;;;;;;;;;16.10;76.60;;;;;;5004248;28;95789;-54
2021/06/23 11:59:51;;;;;;;;;;;16.00;76.50;;;;;;5008133;28;95801;-57
2021/06/23 12:02:22;;;;;;;;;;;16.00;76.50;;;;;;4996846;28;96247;-57
2021/06/23 12:05:19;;;;;;;;;;;16.00;77.00;;;;;;5002868;28;96286;-55
2021/06/23 12:07:51;;;;;;;;;;;16.00;76.40;;;;;;5002062;28;95898;-57
2021/06/23 12:10:22;;;;;;;;;;;16.10;76.70;;;;;;5009410;28;95388;-56
2021/06/23 12:12:53;;;;;;;;;;;16.00;76.80;;;;;;5004836;28;95824;-54
2021/06/23 12:15:25;;;;;;;;;;;16.00;77.00;;;;;;5004870;28;95476;-58
2021/06/23 12:17:58;;;;;;;;;;;16.00;77.10;;;;;;5003458;28;95816;-47
2021/06/23 12:20:31;;;;;;;;;;;15.90;77.00;;;;;;5009356;28;95740;-58
2021/06/23 12:23:04;;;;;;;;;;;15.90;77.10;;;;;;5003169;28;101718;-49
2021/06/23 12:25:37;;;;;;;;;;;15.90;77.00;;;;;;5008507;28;95830;-57
2021/06/23 12:28:10;;;;;;;;;;;15.90;77.00;;;;;;5005355;28;96751;-55
2021/06/23 12:30:43;;;;;;;;;;;15.90;76.90;;;;;;5002377;28;95907;-57
2021/06/23 12:33:15;;;;;;;;;;;15.90;77.00;;;;;;4998655;28;97470;-55
2021/06/23 12:35:46;;;;;;;;;;;15.90;77.00;;;;;;5005211;28;95937;-49
2021/06/23 12:38:19;;;;;;;;;;;15.90;77.10;;;;;;5003917;28;95364;-56
2021/06/23 12:40:50;;;;;;;;;;;15.90;77.10;;;;;;5007092;28;95779;-48
2021/06/23 12:43:20;;;;;;;;;;;15.80;77.00;;;;;;4999553;28;96302;-58
2021/06/23 12:45:51;;;;;;;;;;;15.80;77.10;;;;;;4998412;28;95881;-57
2021/06/23 12:48:26;;;;;;;;;;;15.80;77.10;;;;;;5003626;28;95733;-48
2021/06/23 12:50:58;;;;;;;;;;;15.80;77.00;;;;;;5006148;28;95761;-47
2021/06/23 12:53:28;;;;;;;;;;;15.80;77.10;;;;;;5002725;28;95860;-55
2021/06/23 12:56:00;;;;;;;;;;;15.80;77.10;;;;;;5005226;28;96152;-55
2021/06/23 12:58:32;;;;;;;;;;;15.70;77.10;;;;;;5003905;28;95627;-58
2021/06/23 13:01:04;;;;;;;;;;;15.70;77.10;;;;;;4986707;28;97495;-56
2021/06/23 13:03:34;;;;;;;;;;;15.70;77.20;;;;;;4999927;28;96651;-57
2021/06/23 13:06:04;;;;;;;;;;;15.70;77.30;;;;;;5002919;28;95892;-57
2021/06/23 13:08:36;;;;;;;;;;;15.70;77.20;;;;;;4999820;28;95906;-56
2021/06/23 13:11:05;;;;;;;;;;;15.70;77.30;;;;;;5003815;28;95940;-57
2021/06/23 13:13:36;;;;;;;;;;;15.70;77.20;;;;;;5006298;28;95820;-57
2021/06/23 13:16:10;;;;;;;;;;;15.70;77.20;;;;;;5000685;28;95860;-48
2021/06/23 13:18:40;;;;;;;;;;;15.60;77.30;;;;;;5004998;28;95719;-57
2021/06/23 13:21:11;;;;;;;;;;;15.60;77.40;;;;;;5003711;28;95922;-55
2021/06/23 13:23:41;;;;;;;;;;;15.60;77.30;;;;;;5006692;28;95899;-48
2021/06/23 13:26:15;;;;;;;;;;;15.60;77.40;;;;;;5002282;28;95663;-57
2021/06/23 13:28:47;;;;;;;;;;;15.60;77.40;;;;;;5007945;28;95315;-47
2021/06/23 13:31:22;;;;;;;;;;;15.60;77.40;;;;;;4998877;28;95895;-55
2021/06/23 13:33:54;;;;;;;;;;;15.60;77.40;;;;;;5006084;28;95851;-49
2021/06/23 13:36:24;;;;;;;;;;;15.60;77.40;;;;;;5005437;28;96321;-57
2021/06/23 13:38:56;;;;;;;;;;;15.60;77.40;;;;;;5008500;28;95987;-56
2021/06/23 13:41:26;;;;;;;;;;;15.60;77.40;;;;;;5003630;28;96113;-53
2021/06/23 13:43:57;;;;;;;;;;;15.50;77.40;;;;;;5008365;28;96107;-57
2021/06/23 13:46:28;;;;;;;;;;;15.50;77.40;;;;;;4998158;28;95849;-57
2021/06/23 13:48:59;;;;;;;;;;;15.50;77.50;;;;;;5012618;28;95692;-57
2021/06/23 13:51:30;;;;;;;;;;;15.50;77.50;;;;;;5009391;28;95895;-56
2021/06/23 13:54:01;;;;;;;;;;;15.50;77.50;;;;;;5008325;28;95771;-55
2021/06/23 13:56:30;;;;;;;;;;;15.50;77.50;;;;;;5005798;28;95893;-56
2021/06/23 13:58:59;;;;;;;;;;;15.40;77.50;;;;;;5009903;28;95967;-48
2021/06/23 14:01:30;;;;;;;;;;;15.50;77.60;;;;;;5003719;28;95755;-48
2021/06/23 14:04:01;;;;;;;;;;;15.50;77.50;;;;;;5010845;28;96959;-57
2021/06/23 14:06:31;;;;;;;;;;;15.50;77.60;;;;;;5008724;28;96592;-48
2021/06/23 14:09:02;;;;;;;;;;;15.50;77.60;;;;;;5011447;28;95666;-47
2021/06/23 14:11:33;;;;;;;;;;;15.40;77.60;;;;;;5009370;28;97825;-47
2021/06/23 14:14:04;;;;;;;;;;;15.40;77.50;;;;;;5010166;28;95871;-57
2021/06/23 14:16:34;;;;;;;;;;;15.40;77.60;;;;;;5001398;28;96058;-48
2021/06/23 14:19:07;;;;;;;;;;;15.40;77.60;;;;;;5009387;28;95909;-57
2021/06/23 14:21:37;;;;;;;;;;;15.40;77.70;;;;;;4994630;28;95973;-47
2021/06/23 14:24:08;;;;;;;;;;;15.40;77.60;;;;;;5011628;28;96539;-49
2021/06/23 14:27:18;;;;;;;1.50;1.40;;;15.30;77.20;;;;;;4997320;27;95689;-57
2021/06/23 14:29:50;;;;;;;1.55;1.45;;;15.40;77.70;;;;;;5003989;28;95757;-56
2021/06/23 14:32:24;;;;;;;1.50;1.40;;;15.30;77.70;;;;;;5009228;27;95708;-58
2021/06/23 14:34:56;;;;;;;1.45;1.35;;;15.30;77.70;;;;;;5011931;28;96394;-58
2021/06/23 14:37:26;;;;;;;;;;;15.40;77.80;;;;;;5035545;27;95975;-57
2021/06/23 14:39:57;;;;;;;2.05;1.58;;;15.40;77.80;;;;;;5020911;28;95905;-57
2021/06/23 14:42:32;;;;;;;1.85;1.60;;;15.50;78.00;;;;;;5020272;27;97428;-58
2021/06/23 14:45:02;;;;;;;2.00;1.67;;;15.50;78.70;;;;;;5018633;28;96694;-48
2021/06/23 14:47:33;;;;;;;1.40;1.30;;;15.50;78.90;;;;;;5020729;27;96075;-59
2021/06/23 14:50:05;;;;;;;2.00;1.63;;;15.50;78.90;;;;;;5023670;28;95512;-56
2021/06/23 14:52:35;;;;;;;1.52;1.23;;;15.50;78.70;;;;;;5020010;28;95734;-50
2021/06/23 14:55:06;;;;;;;1.17;1.17;;;15.50;78.30;;;;;;5013585;28;96608;-58
2021/06/23 14:57:38;;;;;;;2.38;1.55;;;15.50;78.20;;;;;;5021912;28;95760;-49
2021/06/23 15:00:11;;;;;;;1.55;1.38;;;15.60;78.10;;;;;;5020337;28;95790;-47
2021/06/23 15:02:43;;;;;;;1.23;1.13;;;15.60;78.10;;;;;;5016358;27;96003;-47